Dayton, OH (45401)

1:52 AM EST on November 27, 2014 (GMT -0500)
Sinclair Dayton Campus | Change Station
CLOSE
Current Station
Personal Weather Station
Location: Dayton, OH
Elevation: 780 ft
Nearby Weather Stations

Elev 780 ft 39.76 °N, 84.20 °W | Updated 4 seconds ago

Overcast
Overcast
29.9 °F
Feels Like 30 °F
N
0.0
Wind Variable Wind from NNW
Gusts 1.0 mph

Today
High -- | Low -- °F
--% Chance of Precip.
Yesterday
High -- | Low -- °F
Precip. -- in
7:34 AM 5:13 PM
Waxing Crescent, 26% visible
Pressure 30.10 in
Visibility 10.0 miles
Clouds Mostly Cloudy 2700 ft
Windchill 30 °F
Dew Point 24 °F
Humidity 80%
Rainfall 0.00 in
Snow Depth Not available.
UV 0.0 out of 12
Pollen .10 out of 12
Air Quality Not available.
Flu Activity Not available.
METAR KFFO 270558Z 33005KT 10SM BKN027 M02/M04 A3006 RMK AO2A SLP191 T10161044 11002 21016 50001

More Conditions Fewer Conditions

Pressure 30.10 in
Visibility 10.0 miles
Clouds Mostly Cloudy 2700 ft
Windchill 30 °F
Dew Point 24 °F
Humidity 80%
Rainfall 0.00 in
Snow Depth Not available.
UV 0.0 out of 12
Pollen .10 out of 12
Air Quality Not available.
Flu Activity Not available.
METAR KFFO 270558Z 33005KT 10SM BKN027 M02/M04 A3006 RMK AO2A SLP191 T10161044 11002 21016 50001

More Conditions Fewer Conditions

10-Day Weather Forecast

Almanac

Astronomy

Nov. 27, 2014 Rise Set
Actual Time
Civil Twilight
Nautical Twilight
Astronomical Twilight
Moon
Length of Visible Light
Length of Day
Tomorrow will be .
, % of the Moon is Illuminated

Today's Extremes

State Highs State Lows

Community

WunderPhotos

Upload Photos

1,773,962 photos uploaded!

WunderBlogs® & News

Nearby

Air Quality

  Air Quality AQ Index Pollutant
Not available.

Snow Depth

Station Depth Elevation

Earthquake Activity

City Distance Mag. Time & Date
Minimum magnitude displayed is 2.5.

Coastal Water Temperatures

Place Temperature

Nearby Weather Stations